Vikulovo, Russia
Current Conditions -  °F | °C
As of 4:30 PM on Tuesday 25 Nov 2014 (Local Time) from UACP Reporting Station
Broken Clouds Broken Clouds  
Wind Chill:   Ceiling: 2400
Heat Index: 18°   Visibility: 6mi
Dew Point: 10°   Wind: 20mph
Humidity: 73%   Direction: 270°W
Pressure: 30.03"   Gusts: NA
Location:  56.82°N, 70.62°E
Report Text: UACP 251130Z 27009MPS 9999 BKN024CB M08/M12 Q1017 R23/8/2039NOSIG RMK QFE750/1000
Loading
Personal Weather Stations






























Interactive Weather Map New forecast layout! Learn more

10-Day Weather Forecast

Advertisements
Track Severe Weather on mobile